sensor_id;sensor_type;location;lat;lon;timestamp;pressure;altitude;pressure_sealevel;temperature;humidity
62791;BME280;48830;53.426;10.300;2023-04-29T00:01:01;100971.09;;;10.22;100.00
62791;BME280;48830;53.426;10.300;2023-04-29T00:03:28;100978.50;;;10.09;100.00
62791;BME280;48830;53.426;10.300;2023-04-29T00:05:57;100975.97;;;10.10;100.00
62791;BME280;48830;53.426;10.300;2023-04-29T00:08:22;100974.34;;;10.15;100.00
62791;BME280;48830;53.426;10.300;2023-04-29T00:10:48;100976.91;;;10.14;100.00
62791;BME280;48830;53.426;10.300;2023-04-29T00:13:14;100977.84;;;10.17;100.00
62791;BME280;48830;53.426;10.300;2023-04-29T00:15:40;100976.69;;;10.05;100.00
62791;BME280;48830;53.426;10.300;2023-04-29T00:18:06;100978.41;;;10.04;100.00
62791;BME280;48830;53.426;10.300;2023-04-29T00:20:34;100978.41;;;10.04;100.00
62791;BME280;48830;53.426;10.300;2023-04-29T00:22:59;100977.44;;;9.99;100.00
62791;BME280;48830;53.426;10.300;2023-04-29T00:25:25;100983.53;;;10.03;100.00
62791;BME280;48830;53.426;10.300;2023-04-29T00:27:51;100986.88;;;10.00;100.00
62791;BME280;48830;53.426;10.300;2023-04-29T00:30:16;100986.06;;;10.01;100.00
62791;BME280;48830;53.426;10.300;2023-04-29T00:32:42;100990.25;;;9.97;100.00
62791;BME280;48830;53.426;10.300;2023-04-29T00:35:09;100985.03;;;9.93;100.00
62791;BME280;48830;53.426;10.300;2023-04-29T00:37:34;100990.81;;;9.84;100.00
62791;BME280;48830;53.426;10.300;2023-04-29T00:40:00;100996.75;;;9.80;100.00
62791;BME280;48830;53.426;10.300;2023-04-29T00:42:26;100997.00;;;9.92;100.00
62791;BME280;48830;53.426;10.300;2023-04-29T00:44:51;100996.06;;;9.89;100.00
62791;BME280;48830;53.426;10.300;2023-04-29T00:47:17;100993.44;;;9.86;100.00
62791;BME280;48830;53.426;10.300;2023-04-29T00:49:43;100986.50;;;9.82;100.00
62791;BME280;48830;53.426;10.300;2023-04-29T00:52:10;100992.47;;;9.81;100.00
62791;BME280;48830;53.426;10.300;2023-04-29T00:54:36;100983.19;;;9.86;100.00
62791;BME280;48830;53.426;10.300;2023-04-29T00:57:03;100999.22;;;9.76;100.00
62791;BME280;48830;53.426;10.300;2023-04-29T00:59:30;100999.00;;;9.66;100.00
62791;BME280;48830;53.426;10.300;2023-04-29T01:02:01;101006.06;;;9.77;100.00
62791;BME280;48830;53.426;10.300;2023-04-29T01:04:28;101010.09;;;9.65;100.00
62791;BME280;48830;53.426;10.300;2023-04-29T01:09:34;101017.94;;;9.71;100.00
62791;BME280;48830;53.426;10.300;2023-04-29T01:14:38;101027.22;;;9.66;100.00
62791;BME280;48830;53.426;10.300;2023-04-29T01:17:09;101025.41;;;9.61;100.00
62791;BME280;48830;53.426;10.300;2023-04-29T01:19:47;101031.53;;;9.67;100.00
62791;BME280;48830;53.426;10.300;2023-04-29T01:22:15;101018.94;;;9.78;100.00
62791;BME280;48830;53.426;10.300;2023-04-29T01:24:42;101028.13;;;9.68;100.00
62791;BME280;48830;53.426;10.300;2023-04-29T01:33:23;101039.13;;;9.63;100.00
62791;BME280;48830;53.426;10.300;2023-04-29T01:41:55;101049.47;;;9.66;100.00
62791;BME280;48830;53.426;10.300;2023-04-29T01:44:28;101050.41;;;9.69;100.00
62791;BME280;48830;53.426;10.300;2023-04-29T01:46:54;101045.19;;;9.66;100.00
62791;BME280;48830;53.426;10.300;2023-04-29T01:49:27;101057.13;;;9.64;100.00
62791;BME280;48830;53.426;10.300;2023-04-29T01:51:53;101057.06;;;9.61;100.00
62791;BME280;48830;53.426;10.300;2023-04-29T01:54:19;101060.38;;;9.57;100.00
62791;BME280;48830;53.426;10.300;2023-04-29T01:56:46;101069.00;;;9.59;100.00
62791;BME280;48830;53.426;10.300;2023-04-29T01:59:30;101065.41;;;9.53;100.00
62791;BME280;48830;53.426;10.300;2023-04-29T02:02:16;101070.59;;;9.56;100.00
62791;BME280;48830;53.426;10.300;2023-04-29T02:04:51;101074.13;;;9.59;100.00
62791;BME280;48830;53.426;10.300;2023-04-29T02:07:17;101075.78;;;9.57;100.00
62791;BME280;48830;53.426;10.300;2023-04-29T02:09:44;101085.97;;;9.54;100.00
62791;BME280;48830;53.426;10.300;2023-04-29T02:12:11;101089.38;;;9.53;100.00
62791;BME280;48830;53.426;10.300;2023-04-29T02:14:36;101093.72;;;9.57;100.00
62791;BME280;48830;53.426;10.300;2023-04-29T02:17:02;101087.78;;;9.58;100.00
62791;BME280;48830;53.426;10.300;2023-04-29T02:19:27;101094.56;;;9.56;100.00
62791;BME280;48830;53.426;10.300;2023-04-29T02:21:54;101096.38;;;9.60;100.00
62791;BME280;48830;53.426;10.300;2023-04-29T02:24:20;101097.22;;;9.59;100.00
62791;BME280;48830;53.426;10.300;2023-04-29T02:26:46;101104.84;;;9.56;100.00
62791;BME280;48830;53.426;10.300;2023-04-29T02:29:12;101111.03;;;9.64;100.00
62791;BME280;48830;53.426;10.300;2023-04-29T02:31:38;101112.75;;;9.64;100.00
62791;BME280;48830;53.426;10.300;2023-04-29T02:34:03;101117.78;;;9.61;100.00
62791;BME280;48830;53.426;10.300;2023-04-29T02:36:29;101114.50;;;9.66;100.00
62791;BME280;48830;53.426;10.300;2023-04-29T02:38:56;101113.63;;;9.66;100.00
62791;BME280;48830;53.426;10.300;2023-04-29T02:41:22;101115.38;;;9.68;100.00
62791;BME280;48830;53.426;10.300;2023-04-29T02:43:48;101115.34;;;9.65;100.00
62791;BME280;48830;53.426;10.300;2023-04-29T02:46:14;101114.47;;;9.65;100.00
62791;BME280;48830;53.426;10.300;2023-04-29T02:48:40;101122.88;;;9.59;100.00
62791;BME280;48830;53.426;10.300;2023-04-29T02:51:06;101127.19;;;9.60;100.00
62791;BME280;48830;53.426;10.300;2023-04-29T02:53:31;101124.59;;;9.59;100.00
62791;BME280;48830;53.426;10.300;2023-04-29T02:55:57;101126.28;;;9.58;100.00
62791;BME280;48830;53.426;10.300;2023-04-29T02:58:22;101131.38;;;9.57;100.00
62791;BME280;48830;53.426;10.300;2023-04-29T03:00:48;101134.06;;;9.61;100.00
62791;BME280;48830;53.426;10.300;2023-04-29T03:03:14;101128.78;;;9.57;100.00
62791;BME280;48830;53.426;10.300;2023-04-29T03:05:40;101142.50;;;9.57;100.00
62791;BME280;48830;53.426;10.300;2023-04-29T03:08:05;101146.81;;;9.58;100.00
62791;BME280;48830;53.426;10.300;2023-04-29T03:10:31;101144.41;;;9.64;100.00
62791;BME280;48830;53.426;10.300;2023-04-29T03:12:57;101141.72;;;9.60;100.00
62791;BME280;48830;53.426;10.300;2023-04-29T03:15:23;101152.81;;;9.59;100.00
62791;BME280;48830;53.426;10.300;2023-04-29T03:17:49;101153.72;;;9.61;100.00
62791;BME280;48830;53.426;10.300;2023-04-29T03:20:15;101157.97;;;9.60;100.00
62791;BME280;48830;53.426;10.300;2023-04-29T03:22:40;101156.16;;;9.56;100.00
62791;BME280;48830;53.426;10.300;2023-04-29T03:25:07;101154.53;;;9.58;100.00
62791;BME280;48830;53.426;10.300;2023-04-29T03:27:33;101154.53;;;9.58;100.00
62791;BME280;48830;53.426;10.300;2023-04-29T03:29:59;101160.47;;;9.57;100.00
62791;BME280;48830;53.426;10.300;2023-04-29T03:32:24;101162.16;;;9.57;100.00
62791;BME280;48830;53.426;10.300;2023-04-29T03:34:50;101165.38;;;9.48;100.00
62791;BME280;48830;53.426;10.300;2023-04-29T03:37:42;101171.34;;;9.47;100.00
62791;BME280;48830;53.426;10.300;2023-04-29T03:40:28;101180.81;;;9.50;100.00
62791;BME280;48830;53.426;10.300;2023-04-29T03:42:54;101176.47;;;9.47;100.00
62791;BME280;48830;53.426;10.300;2023-04-29T03:45:19;101192.84;;;9.52;100.00
62791;BME280;48830;53.426;10.300;2023-04-29T03:47:45;101197.06;;;9.50;100.00
62791;BME280;48830;53.426;10.300;2023-04-29T03:50:10;101196.16;;;9.48;100.00
62791;BME280;48830;53.426;10.300;2023-04-29T03:52:37;101203.00;;;9.48;100.00
62791;BME280;48830;53.426;10.300;2023-04-29T03:55:08;101201.16;;;9.42;100.00
62791;BME280;48830;53.426;10.300;2023-04-29T03:57:34;101206.19;;;9.39;100.00
62791;BME280;48830;53.426;10.300;2023-04-29T04:00:00;101204.59;;;9.42;100.00
62791;BME280;48830;53.426;10.300;2023-04-29T04:02:25;101206.19;;;9.39;100.00
62791;BME280;48830;53.426;10.300;2023-04-29T04:04:51;101204.41;;;9.36;100.00
62791;BME280;48830;53.426;10.300;2023-04-29T04:07:19;101217.28;;;9.38;100.00
62791;BME280;48830;53.426;10.300;2023-04-29T04:10:11;101222.47;;;9.41;100.00
62791;BME280;48830;53.426;10.300;2023-04-29T04:12:36;101220.00;;;9.44;100.00
62791;BME280;48830;53.426;10.300;2023-04-29T04:15:02;101221.72;;;9.43;100.00
62791;BME280;48830;53.426;10.300;2023-04-29T04:17:28;101231.13;;;9.44;100.00
62791;BME280;48830;53.426;10.300;2023-04-29T04:19:54;101232.84;;;9.44;100.00
62791;BME280;48830;53.426;10.300;2023-04-29T04:22:20;101241.31;;;9.41;100.00
62791;BME280;48830;53.426;10.300;2023-04-29T04:25:01;101245.41;;;9.35;100.00
62791;BME280;48830;53.426;10.300;2023-04-29T04:27:26;101251.28;;;9.31;100.00
62791;BME280;48830;53.426;10.300;2023-04-29T04:29:53;101254.72;;;9.31;100.00
62791;BME280;48830;53.426;10.300;2023-04-29T04:32:24;101258.19;;;9.33;100.00
62791;BME280;48830;53.426;10.300;2023-04-29T04:34:50;101265.03;;;9.33;100.00
62791;BME280;48830;53.426;10.300;2023-04-29T04:37:15;101267.59;;;9.33;100.00
62791;BME280;48830;53.426;10.300;2023-04-29T04:39:46;101258.16;;;9.32;100.00
62791;BME280;48830;53.426;10.300;2023-04-29T04:42:13;101262.59;;;9.37;100.00
62791;BME280;48830;53.426;10.300;2023-04-29T04:44:39;101261.72;;;9.37;100.00
62791;BME280;48830;53.426;10.300;2023-04-29T04:47:06;101268.44;;;9.32;100.00
62791;BME280;48830;53.426;10.300;2023-04-29T04:49:45;101273.63;;;9.35;100.00
62791;BME280;48830;53.426;10.300;2023-04-29T04:52:11;101282.84;;;9.28;100.00
62791;BME280;48830;53.426;10.300;2023-04-29T04:54:36;101285.44;;;9.30;100.00
62791;BME280;48830;53.426;10.300;2023-04-29T04:57:13;101283.97;;;9.38;100.00
62791;BME280;48830;53.426;10.300;2023-04-29T04:59:38;101286.81;;;9.47;100.00
62791;BME280;48830;53.426;10.300;2023-04-29T05:02:04;101298.81;;;9.48;100.00
62791;BME280;48830;53.426;10.300;2023-04-29T05:04:30;101306.72;;;9.56;100.00
62791;BME280;48830;53.426;10.300;2023-04-29T05:06:55;101314.38;;;9.54;100.00
62791;BME280;48830;53.426;10.300;2023-04-29T05:09:22;101303.94;;;9.48;100.00
62791;BME280;48830;53.426;10.300;2023-04-29T05:11:48;101307.69;;;9.59;100.00
62791;BME280;48830;53.426;10.300;2023-04-29T05:14:16;101313.44;;;9.52;100.00
62791;BME280;48830;53.426;10.300;2023-04-29T05:16:42;101316.09;;;9.54;100.00
62791;BME280;48830;53.426;10.300;2023-04-29T05:19:09;101322.16;;;9.57;100.00
62791;BME280;48830;53.426;10.300;2023-04-29T05:21:37;101320.50;;;9.59;100.00
62791;BME280;48830;53.426;10.300;2023-04-29T05:24:03;101326.41;;;9.57;100.00
62791;BME280;48830;53.426;10.300;2023-04-29T05:26:29;101334.34;;;9.64;100.00
62791;BME280;48830;53.426;10.300;2023-04-29T05:28:58;101333.63;;;9.70;100.00
62791;BME280;48830;53.426;10.300;2023-04-29T05:31:24;101343.38;;;9.82;100.00
62791;BME280;48830;53.426;10.300;2023-04-29T05:33:50;101347.63;;;9.81;100.00
62791;BME280;48830;53.426;10.300;2023-04-29T05:36:16;101347.38;;;9.72;100.00
62791;BME280;48830;53.426;10.300;2023-04-29T05:38:41;101351.81;;;9.78;100.00
62791;BME280;48830;53.426;10.300;2023-04-29T05:41:09;101347.31;;;9.69;100.00
62791;BME280;48830;53.426;10.300;2023-04-29T05:44:10;101352.31;;;9.64;100.00
62791;BME280;48830;53.426;10.300;2023-04-29T05:46:36;101354.72;;;9.58;100.00
62791;BME280;48830;53.426;10.300;2023-04-29T05:49:01;101359.91;;;9.61;100.00
62791;BME280;48830;53.426;10.300;2023-04-29T05:51:26;101358.34;;;9.66;100.00
62791;BME280;48830;53.426;10.300;2023-04-29T05:53:55;101364.47;;;9.71;100.00
62791;BME280;48830;53.426;10.300;2023-04-29T05:56:23;101370.94;;;9.89;100.00
62791;BME280;48830;53.426;10.300;2023-04-29T05:58:49;101369.22;;;9.88;100.00
62791;BME280;48830;53.426;10.300;2023-04-29T06:01:14;101377.13;;;9.95;100.00
62791;BME280;48830;53.426;10.300;2023-04-29T06:03:41;101376.34;;;9.98;100.00
62791;BME280;48830;53.426;10.300;2023-04-29T06:06:24;101376.50;;;10.04;100.00
62791;BME280;48830;53.426;10.300;2023-04-29T06:09:13;101379.78;;;10.30;100.00
62791;BME280;48830;53.426;10.300;2023-04-29T06:11:44;101386.63;;;10.63;100.00
62791;BME280;48830;53.426;10.300;2023-04-29T06:14:10;101387.25;;;10.89;100.00
62791;BME280;48830;53.426;10.300;2023-04-29T06:16:35;101386.56;;;10.97;100.00
62791;BME280;48830;53.426;10.300;2023-04-29T06:19:01;101384.84;;;10.96;100.00
62791;BME280;48830;53.426;10.300;2023-04-29T06:21:27;101392.06;;;11.13;100.00
62791;BME280;48830;53.426;10.300;2023-04-29T06:23:56;101395.50;;;11.12;100.00
62791;BME280;48830;53.426;10.300;2023-04-29T06:26:21;101397.22;;;11.13;100.00
62791;BME280;48830;53.426;10.300;2023-04-29T06:28:47;101400.00;;;11.20;100.00
62791;BME280;48830;53.426;10.300;2023-04-29T06:31:13;101401.22;;;11.38;100.00
62791;BME280;48830;53.426;10.300;2023-04-29T06:33:39;101397.28;;;11.55;100.00
62791;BME280;48830;53.426;10.300;2023-04-29T06:36:05;101402.78;;;11.70;100.00
62791;BME280;48830;53.426;10.300;2023-04-29T06:38:36;101407.28;;;11.80;100.00
62791;BME280;48830;53.426;10.300;2023-04-29T06:41:21;101410.19;;;11.96;100.00
62791;BME280;48830;53.426;10.300;2023-04-29T06:44:03;101404.50;;;12.14;100.00
62791;BME280;48830;53.426;10.300;2023-04-29T06:46:37;101405.41;;;12.16;100.00
62791;BME280;48830;53.426;10.300;2023-04-29T06:49:21;101410.88;;;12.32;100.00
62791;BME280;48830;53.426;10.300;2023-04-29T06:51:47;101412.81;;;12.46;100.00
62791;BME280;48830;53.426;10.300;2023-04-29T06:54:13;101413.97;;;12.61;100.00
62791;BME280;48830;53.426;10.300;2023-04-29T06:56:38;101422.75;;;12.74;100.00
62791;BME280;48830;53.426;10.300;2023-04-29T06:59:04;101418.81;;;12.95;100.00
62791;BME280;48830;53.426;10.300;2023-04-29T07:01:29;101419.72;;;12.98;100.00
62791;BME280;48830;53.426;10.300;2023-04-29T07:03:55;101423.28;;;13.06;100.00
62791;BME280;48830;53.426;10.300;2023-04-29T07:06:20;101438.06;;;13.17;100.00
62791;BME280;48830;53.426;10.300;2023-04-29T07:08:46;101438.16;;;13.21;98.37
62791;BME280;48830;53.426;10.300;2023-04-29T07:11:13;101439.25;;;13.37;96.18
62791;BME280;48830;53.426;10.300;2023-04-29T07:13:39;101438.25;;;13.27;92.73
62791;BME280;48830;53.426;10.300;2023-04-29T07:16:05;101447.16;;;13.48;92.69
62791;BME280;48830;53.426;10.300;2023-04-29T07:18:38;101445.38;;;13.44;90.12
62791;BME280;48830;53.426;10.300;2023-04-29T07:21:05;101450.88;;;13.68;92.38
62791;BME280;48830;53.426;10.300;2023-04-29T07:23:31;101442.44;;;13.81;92.16
62791;BME280;48830;53.426;10.300;2023-04-29T07:25:56;101445.13;;;13.90;90.94
62791;BME280;48830;53.426;10.300;2023-04-29T07:28:22;101445.06;;;13.86;87.04
62791;BME280;48830;53.426;10.300;2023-04-29T07:30:47;101445.25;;;14.00;86.19
62791;BME280;48830;53.426;10.300;2023-04-29T07:33:13;101454.13;;;14.25;86.11
62791;BME280;48830;53.426;10.300;2023-04-29T07:35:39;101463.72;;;14.33;86.13
62791;BME280;48830;53.426;10.300;2023-04-29T07:38:07;101469.16;;;14.55;86.15
62791;BME280;48830;53.426;10.300;2023-04-29T07:40:33;101469.38;;;14.79;85.86
62791;BME280;48830;53.426;10.300;2023-04-29T07:42:58;101472.94;;;14.92;83.94
62791;BME280;48830;53.426;10.300;2023-04-29T07:45:28;101479.84;;;14.94;79.54
62791;BME280;48830;53.426;10.300;2023-04-29T07:47:54;101484.25;;;15.02;81.07
62791;BME280;48830;53.426;10.300;2023-04-29T07:50:20;101480.81;;;15.03;79.86
62791;BME280;48830;53.426;10.300;2023-04-29T07:52:45;101482.66;;;15.17;80.73
62791;BME280;48830;53.426;10.300;2023-04-29T07:55:11;101485.44;;;15.46;82.29
62791;BME280;48830;53.426;10.300;2023-04-29T07:57:36;101482.03;;;15.57;78.00
62791;BME280;48830;53.426;10.300;2023-04-29T08:00:03;101492.50;;;15.66;78.90
62791;BME280;48830;53.426;10.300;2023-04-29T08:02:39;101497.59;;;15.60;74.31
62791;BME280;48830;53.426;10.300;2023-04-29T08:05:06;101505.44;;;15.64;76.11
62791;BME280;48830;53.426;10.300;2023-04-29T08:07:32;101509.00;;;15.86;76.54
62791;BME280;48830;53.426;10.300;2023-04-29T08:09:58;101509.16;;;16.15;75.70
62791;BME280;48830;53.426;10.300;2023-04-29T08:12:23;101517.81;;;16.20;75.50
62791;BME280;48830;53.426;10.300;2023-04-29T08:14:49;101510.00;;;16.13;71.90
62791;BME280;48830;53.426;10.300;2023-04-29T08:17:14;101522.16;;;16.26;73.21
62791;BME280;48830;53.426;10.300;2023-04-29T08:19:40;101525.53;;;16.07;70.07
62791;BME280;48830;53.426;10.300;2023-04-29T08:22:05;101531.72;;;16.41;70.93
62791;BME280;48830;53.426;10.300;2023-04-29T08:24:31;101526.63;;;16.71;70.61
62791;BME280;48830;53.426;10.300;2023-04-29T08:26:57;101535.28;;;16.78;69.19
62791;BME280;48830;53.426;10.300;2023-04-29T08:29:23;101536.19;;;16.88;68.25
62791;BME280;48830;53.426;10.300;2023-04-29T08:31:49;101543.16;;;17.18;69.18
62791;BME280;48830;53.426;10.300;2023-04-29T08:34:29;101542.28;;;17.14;67.45
62791;BME280;48830;53.426;10.300;2023-04-29T08:36:56;101548.34;;;17.33;67.84
62791;BME280;48830;53.426;10.300;2023-04-29T08:39:21;101550.06;;;17.60;67.19
62791;BME280;48830;53.426;10.300;2023-04-29T08:41:47;101543.09;;;17.57;64.77
62791;BME280;48830;53.426;10.300;2023-04-29T08:44:16;101552.63;;;17.63;64.40
62791;BME280;48830;53.426;10.300;2023-04-29T08:46:44;101557.84;;;17.60;66.27
62791;BME280;48830;53.426;10.300;2023-04-29T08:49:10;101557.81;;;17.89;64.19
62791;BME280;48830;53.426;10.300;2023-04-29T08:51:36;101557.84;;;17.88;62.99
62791;BME280;48830;53.426;10.300;2023-04-29T08:54:01;101564.72;;;17.96;63.86
62791;BME280;48830;53.426;10.300;2023-04-29T08:56:28;101568.16;;;18.07;63.87
62791;BME280;48830;53.426;10.300;2023-04-29T08:58:56;101569.03;;;18.09;63.20
62791;BME280;48830;53.426;10.300;2023-04-29T09:01:28;101569.84;;;18.24;62.75
62791;BME280;48830;53.426;10.300;2023-04-29T09:04:19;101575.00;;;18.38;60.45
62791;BME280;48830;53.426;10.300;2023-04-29T09:06:46;101569.88;;;18.21;58.69
62791;BME280;48830;53.426;10.300;2023-04-29T09:09:13;101573.25;;;18.43;61.34
62791;BME280;48830;53.426;10.300;2023-04-29T09:11:39;101578.41;;;18.50;58.50
62791;BME280;48830;53.426;10.300;2023-04-29T09:14:05;101570.53;;;18.69;60.36
62791;BME280;48830;53.426;10.300;2023-04-29T09:16:32;101572.22;;;18.80;58.33
62791;BME280;48830;53.426;10.300;2023-04-29T09:18:57;101566.06;;;18.91;58.88
62791;BME280;48830;53.426;10.300;2023-04-29T09:21:25;101575.53;;;18.99;60.26
62791;BME280;48830;53.426;10.300;2023-04-29T09:23:57;101572.19;;;18.85;58.89
62791;BME280;48830;53.426;10.300;2023-04-29T09:26:24;101580.84;;;18.87;56.79
62791;BME280;48830;53.426;10.300;2023-04-29T09:29:13;101581.56;;;19.09;56.49
62791;BME280;48830;53.426;10.300;2023-04-29T09:31:41;101582.50;;;18.97;56.47
62791;BME280;48830;53.426;10.300;2023-04-29T09:34:06;101582.38;;;19.15;56.29
62791;BME280;48830;53.426;10.300;2023-04-29T09:36:50;101585.63;;;19.45;55.87
62791;BME280;48830;53.426;10.300;2023-04-29T09:39:22;101587.28;;;19.52;55.65
62791;BME280;48830;53.426;10.300;2023-04-29T09:47:00;101591.63;;;19.55;52.80
62791;BME280;48830;53.426;10.300;2023-04-29T09:49:32;101595.72;;;19.85;53.00
62791;BME280;48830;53.426;10.300;2023-04-29T09:52:01;101595.34;;;20.20;53.12
62791;BME280;48830;53.426;10.300;2023-04-29T09:54:30;101595.22;;;20.28;51.82
62791;BME280;48830;53.426;10.300;2023-04-29T09:56:58;101597.09;;;20.19;50.96
62791;BME280;48830;53.426;10.300;2023-04-29T09:59:24;101603.94;;;20.27;51.79
62791;BME280;48830;53.426;10.300;2023-04-29T10:01:57;101608.28;;;20.31;50.80
62791;BME280;48830;53.426;10.300;2023-04-29T10:04:24;101610.03;;;20.29;51.17
62791;BME280;48830;53.426;10.300;2023-04-29T10:06:52;101607.47;;;20.23;50.98
62791;BME280;48830;53.426;10.300;2023-04-29T10:09:19;101606.63;;;20.22;50.81
62791;BME280;48830;53.426;10.300;2023-04-29T10:11:47;101610.47;;;20.64;50.84
62791;BME280;48830;53.426;10.300;2023-04-29T10:14:23;101606.38;;;20.45;50.60
62791;BME280;48830;53.426;10.300;2023-04-29T10:20:02;101610.56;;;20.58;51.20
62791;BME280;48830;53.426;10.300;2023-04-29T10:22:41;101604.88;;;20.93;51.83
62791;BME280;48830;53.426;10.300;2023-04-29T10:25:09;101615.16;;;21.03;50.69
62791;BME280;48830;53.426;10.300;2023-04-29T10:27:36;101604.53;;;21.13;50.09
62791;BME280;48830;53.426;10.300;2023-04-29T10:30:06;101607.44;;;21.52;50.91
62791;BME280;48830;53.426;10.300;2023-04-29T10:32:33;101603.00;;;21.59;52.97
62791;BME280;48830;53.426;10.300;2023-04-29T10:34:59;101603.56;;;21.74;51.56
62791;BME280;48830;53.426;10.300;2023-04-29T10:37:26;101598.84;;;21.93;49.78
62791;BME280;48830;53.426;10.300;2023-04-29T10:42:46;101608.69;;;22.27;50.23
62791;BME280;48830;53.426;10.300;2023-04-29T10:50:29;101605.75;;;21.97;49.20
62791;BME280;48830;53.426;10.300;2023-04-29T10:52:55;101604.69;;;22.06;49.94
62791;BME280;48830;53.426;10.300;2023-04-29T10:55:22;101606.25;;;22.61;48.93
62791;BME280;48830;53.426;10.300;2023-04-29T10:57:47;101599.78;;;22.77;47.86
62791;BME280;48830;53.426;10.300;2023-04-29T11:00:25;101606.06;;;23.09;48.97
62791;BME280;48830;53.426;10.300;2023-04-29T11:02:59;101606.06;;;22.27;47.28
62791;BME280;48830;53.426;10.300;2023-04-29T11:05:32;101602.59;;;21.80;48.43
62791;BME280;48830;53.426;10.300;2023-04-29T11:08:28;101612.13;;;22.72;47.78
62791;BME280;48830;53.426;10.300;2023-04-29T11:10:59;101607.28;;;22.11;46.96
62791;BME280;48830;53.426;10.300;2023-04-29T11:13:27;101614.09;;;21.71;46.67
62791;BME280;48830;53.426;10.300;2023-04-29T11:16:03;101618.47;;;21.15;47.93
62791;BME280;48830;53.426;10.300;2023-04-29T11:18:29;101619.31;;;21.17;47.61
62791;BME280;48830;53.426;10.300;2023-04-29T11:23:36;101620.41;;;21.04;47.52
62791;BME280;48830;53.426;10.300;2023-04-29T11:26:03;101626.22;;;20.61;49.18
62791;BME280;48830;53.426;10.300;2023-04-29T11:28:30;101621.16;;;20.43;49.30
62791;BME280;48830;53.426;10.300;2023-04-29T11:30:59;101634.56;;;20.88;48.72
62791;BME280;48830;53.426;10.300;2023-04-29T11:33:26;101631.81;;;20.97;48.40
62791;BME280;48830;53.426;10.300;2023-04-29T11:35:54;101635.34;;;20.22;48.97
62791;BME280;48830;53.426;10.300;2023-04-29T11:38:25;101638.50;;;20.50;48.00
62791;BME280;48830;53.426;10.300;2023-04-29T11:40:51;101632.78;;;20.19;49.82
62791;BME280;48830;53.426;10.300;2023-04-29T11:43:17;101643.03;;;20.36;49.96
62791;BME280;48830;53.426;10.300;2023-04-29T11:45:46;101627.69;;;20.05;48.16
62791;BME280;48830;53.426;10.300;2023-04-29T11:48:23;101638.06;;;20.85;49.53
62791;BME280;48830;53.426;10.300;2023-04-29T11:50:51;101642.94;;;20.42;49.47
62791;BME280;48830;53.426;10.300;2023-04-29T11:53:21;101646.66;;;20.21;49.91
62791;BME280;48830;53.426;10.300;2023-04-29T11:55:48;101642.56;;;20.77;48.95
62791;BME280;48830;53.426;10.300;2023-04-29T11:58:14;101646.09;;;21.35;48.48
62791;BME280;48830;53.426;10.300;2023-04-29T12:00:43;101645.28;;;21.31;48.36
62791;BME280;48830;53.426;10.300;2023-04-29T12:03:16;101656.34;;;20.88;50.45
62791;BME280;48830;53.426;10.300;2023-04-29T12:06:01;101647.50;;;21.56;49.16
62791;BME280;48830;53.426;10.300;2023-04-29T12:08:28;101650.69;;;21.74;48.83
62791;BME280;48830;53.426;10.300;2023-04-29T12:10:55;101660.84;;;21.39;47.56
62791;BME280;48830;53.426;10.300;2023-04-29T12:13:27;101654.25;;;21.12;47.86
62791;BME280;48830;53.426;10.300;2023-04-29T12:15:53;101658.69;;;21.07;49.11
62791;BME280;48830;53.426;10.300;2023-04-29T12:18:20;101655.78;;;20.63;47.61
62791;BME280;48830;53.426;10.300;2023-04-29T12:20:48;101659.06;;;20.01;48.55
62791;BME280;48830;53.426;10.300;2023-04-29T12:23:16;101658.44;;;19.76;48.56
62791;BME280;48830;53.426;10.300;2023-04-29T12:25:50;101658.38;;;19.79;50.03
62791;BME280;48830;53.426;10.300;2023-04-29T12:28:17;101665.13;;;20.01;50.58
62791;BME280;48830;53.426;10.300;2023-04-29T12:30:44;101660.38;;;20.41;49.51
62791;BME280;48830;53.426;10.300;2023-04-29T12:33:17;101659.13;;;20.75;49.02
62791;BME280;48830;53.426;10.300;2023-04-29T12:35:42;101659.88;;;20.84;48.11
62791;BME280;48830;53.426;10.300;2023-04-29T12:38:08;101663.50;;;20.73;48.15
62791;BME280;48830;53.426;10.300;2023-04-29T12:40:33;101660.75;;;20.82;49.27
62791;BME280;48830;53.426;10.300;2023-04-29T12:43:06;101665.84;;;20.17;49.90
62791;BME280;48830;53.426;10.300;2023-04-29T12:45:32;101663.31;;;20.09;48.75
62791;BME280;48830;53.426;10.300;2023-04-29T12:47:59;101666.38;;;20.50;49.92
62791;BME280;48830;53.426;10.300;2023-04-29T12:50:33;101667.94;;;20.64;50.26
62791;BME280;48830;53.426;10.300;2023-04-29T12:52:59;101666.13;;;20.73;48.71
62791;BME280;48830;53.426;10.300;2023-04-29T12:55:25;101663.88;;;20.39;49.01
62791;BME280;48830;53.426;10.300;2023-04-29T12:57:50;101654.50;;;20.21;48.09
62791;BME280;48830;53.426;10.300;2023-04-29T13:00:16;101655.91;;;19.66;49.00
62791;BME280;48830;53.426;10.300;2023-04-29T13:02:42;101662.06;;;20.44;49.45
62791;BME280;48830;53.426;10.300;2023-04-29T13:05:08;101657.19;;;20.13;48.99
62791;BME280;48830;53.426;10.300;2023-04-29T13:07:33;101651.38;;;19.87;49.92
62791;BME280;48830;53.426;10.300;2023-04-29T13:09:59;101659.28;;;19.76;50.30
62791;BME280;48830;53.426;10.300;2023-04-29T13:12:24;101658.72;;;19.33;50.49
62791;BME280;48830;53.426;10.300;2023-04-29T13:14:50;101658.00;;;19.09;50.96
62791;BME280;48830;53.426;10.300;2023-04-29T13:17:15;101659.69;;;19.20;50.80
62791;BME280;48830;53.426;10.300;2023-04-29T13:19:41;101656.97;;;19.35;51.25